createdAt,value
2024-03-09T00:01:45.034Z,6.83
2024-03-09T00:04:46.868Z,6.80
2024-03-09T00:07:49.677Z,6.88
2024-03-09T00:10:51.902Z,6.91
2024-03-09T00:13:53.695Z,6.80
2024-03-09T00:16:55.484Z,6.83
2024-03-09T00:20:00.502Z,6.88
2024-03-09T00:23:07.394Z,6.79
2024-03-09T00:26:11.406Z,6.71
2024-03-09T00:29:13.477Z,6.77
2024-03-09T00:32:15.397Z,6.64
2024-03-09T00:35:17.476Z,6.83
2024-03-09T00:38:20.437Z,6.70
2024-03-09T00:41:22.258Z,6.64
2024-03-09T00:44:24.089Z,6.56
2024-03-09T00:47:25.807Z,6.67
2024-03-09T00:50:28.515Z,6.62
2024-03-09T00:53:31.859Z,6.67
2024-03-09T00:56:34.395Z,6.64
2024-03-09T00:59:36.175Z,6.78
2024-03-09T01:02:42.542Z,6.56
2024-03-09T01:05:45.710Z,6.61
2024-03-09T01:08:50.362Z,6.64
2024-03-09T01:11:53.682Z,6.75
2024-03-09T01:14:56.470Z,6.58
2024-03-09T01:17:58.628Z,6.57
2024-03-09T01:21:00.448Z,6.60
2024-03-09T01:24:02.829Z,6.60
2024-03-09T01:27:05.930Z,6.57
2024-03-09T01:30:08.586Z,6.70
2024-03-09T01:33:10.596Z,6.56
2024-03-09T01:36:12.409Z,6.51
2024-03-09T01:39:17.156Z,6.55
2024-03-09T01:42:22.997Z,6.56
2024-03-09T01:45:28.012Z,6.54
2024-03-09T01:48:30.994Z,6.62
2024-03-09T01:51:35.846Z,6.47
2024-03-09T01:54:43.039Z,6.37
2024-03-09T01:57:45.038Z,6.26
2024-03-09T02:00:56.315Z,6.05
2024-03-09T02:03:58.166Z,5.83
2024-03-09T02:07:00.077Z,5.71
2024-03-09T02:10:02.161Z,5.70
2024-03-09T02:13:04.486Z,5.87
2024-03-09T02:16:06.410Z,5.81
2024-03-09T02:19:10.166Z,5.88
2024-03-09T02:22:18.449Z,6.02
2024-03-09T02:25:22.785Z,5.85
2024-03-09T02:28:24.635Z,5.80
2024-03-09T02:31:29.508Z,5.93
2024-03-09T02:34:31.466Z,5.96
2024-03-09T02:37:35.068Z,6.03
2024-03-09T02:40:36.843Z,6.22
2024-03-09T02:43:38.820Z,6.13
2024-03-09T02:46:41.050Z,6.21
2024-03-09T02:49:42.964Z,6.16
2024-03-09T02:52:44.717Z,6.47
2024-03-09T02:55:47.033Z,6.37
2024-03-09T02:58:50.078Z,6.36
2024-03-09T03:01:53.317Z,6.38
2024-03-09T03:04:55.142Z,6.34
2024-03-09T03:07:56.968Z,6.44
2024-03-09T03:10:58.824Z,6.22
2024-03-09T03:14:02.704Z,6.11
2024-03-09T03:17:08.560Z,6.16
2024-03-09T03:20:11.400Z,6.08
2024-03-09T03:23:14.019Z,6.27
2024-03-09T03:26:17.059Z,6.28
2024-03-09T03:29:18.914Z,6.13
2024-03-09T03:32:20.783Z,6.11
2024-03-09T03:35:25.967Z,6.30
2024-03-09T03:38:27.718Z,6.30
2024-03-09T03:41:29.442Z,6.36
2024-03-09T03:44:35.727Z,6.40
2024-03-09T03:47:37.464Z,6.34
2024-03-09T03:50:39.348Z,6.42
2024-03-09T03:53:42.849Z,6.43
2024-03-09T03:56:44.594Z,6.48
2024-03-09T03:59:46.360Z,6.47
2024-03-09T04:02:48.211Z,6.47
2024-03-09T04:05:50.314Z,6.41
2024-03-09T04:08:52.143Z,6.41
2024-03-09T04:11:54.586Z,6.58
2024-03-09T04:14:58.314Z,6.54
2024-03-09T04:18:04.168Z,6.52
2024-03-09T04:21:06.185Z,6.61
2024-03-09T04:24:10.578Z,6.56
2024-03-09T04:27:12.413Z,6.45
2024-03-09T04:30:17.182Z,6.47
2024-03-09T04:33:20.741Z,6.63
2024-03-09T04:36:27.393Z,6.55
2024-03-09T04:39:30.883Z,6.49
2024-03-09T04:42:32.673Z,6.60
2024-03-09T04:45:34.705Z,6.55
2024-03-09T04:48:36.449Z,6.61
2024-03-09T04:51:38.179Z,6.55
2024-03-09T04:54:44.997Z,6.56
2024-03-09T04:57:47.097Z,6.38
2024-03-09T05:00:48.927Z,6.37
2024-03-09T05:03:50.708Z,6.29
2024-03-09T05:06:52.571Z,6.36
2024-03-09T05:09:54.361Z,6.22
2024-03-09T05:12:56.672Z,6.11
2024-03-09T05:15:58.456Z,6.25
2024-03-09T05:19:00.963Z,6.03
2024-03-09T05:22:02.781Z,5.95
2024-03-09T05:25:05.822Z,5.89
2024-03-09T05:28:07.712Z,6.10
2024-03-09T05:31:26.546Z,5.96
2024-03-09T05:34:28.368Z,6.03
2024-03-09T05:37:30.093Z,5.93
2024-03-09T05:40:32.445Z,5.82
2024-03-09T05:43:34.450Z,5.95
2024-03-09T05:46:36.253Z,5.88
2024-03-09T05:49:38.390Z,5.78
2024-03-09T05:52:42.035Z,5.74
2024-03-09T05:55:45.200Z,5.77
2024-03-09T05:58:47.372Z,5.77
2024-03-09T06:01:49.167Z,5.69
2024-03-09T06:04:50.997Z,5.70
2024-03-09T06:07:52.748Z,5.64
2024-03-09T06:11:01.264Z,5.57
2024-03-09T06:14:05.468Z,5.56
2024-03-09T06:17:08.200Z,5.70
2024-03-09T06:20:11.088Z,5.67
2024-03-09T06:23:13.747Z,5.70
2024-03-09T06:26:15.550Z,5.84
2024-03-09T06:29:17.932Z,5.83
2024-03-09T06:32:19.661Z,5.93
2024-03-09T06:35:23.177Z,5.88
2024-03-09T06:38:25.162Z,6.21
2024-03-09T06:41:27.567Z,6.26
2024-03-09T06:44:29.479Z,6.22
2024-03-09T06:47:32.259Z,6.27
2024-03-09T06:50:36.438Z,6.38
2024-03-09T06:53:38.306Z,6.37
2024-03-09T06:56:40.595Z,6.68
2024-03-09T06:59:42.336Z,6.66
2024-03-09T07:02:44.699Z,6.80
2024-03-09T07:05:47.414Z,6.72
2024-03-09T07:08:49.147Z,6.96
2024-03-09T07:11:53.847Z,7.02
2024-03-09T07:14:55.912Z,7.19
2024-03-09T07:17:58.197Z,7.49
2024-03-09T07:21:00.066Z,7.72
2024-03-09T07:24:01.895Z,8.15
2024-03-09T07:27:03.709Z,8.17
2024-03-09T07:30:09.566Z,8.12
2024-03-09T07:33:11.949Z,8.29
2024-03-09T07:36:14.697Z,8.33
2024-03-09T07:39:17.426Z,8.31
2024-03-09T07:42:19.244Z,7.91
2024-03-09T07:45:24.289Z,8.02
2024-03-09T07:48:26.303Z,8.01
2024-03-09T07:51:30.323Z,8.23
2024-03-09T07:54:33.228Z,8.42
2024-03-09T07:57:35.096Z,8.57
2024-03-09T08:00:36.899Z,8.30
2024-03-09T08:03:38.734Z,8.53
2024-03-09T08:06:41.496Z,8.64
2024-03-09T08:09:43.215Z,8.55
2024-03-09T08:12:46.005Z,8.69
2024-03-09T08:15:47.824Z,8.62
2024-03-09T08:18:49.541Z,8.80
2024-03-09T08:21:52.571Z,8.71
2024-03-09T08:24:56.960Z,8.49
2024-03-09T08:28:02.124Z,8.80
2024-03-09T08:31:09.435Z,8.94
2024-03-09T08:34:11.132Z,9.16
2024-03-09T08:37:14.188Z,8.86
2024-03-09T08:40:20.835Z,9.11
2024-03-09T08:43:22.657Z,9.30
2024-03-09T08:46:24.426Z,9.30
2024-03-09T08:49:26.181Z,9.00
2024-03-09T08:52:28.092Z,9.23
2024-03-09T08:55:30.040Z,9.69
2024-03-09T08:58:32.572Z,9.76
2024-03-09T09:01:34.353Z,9.87
2024-03-09T09:04:36.219Z,10.06
2024-03-09T09:07:42.794Z,9.90
2024-03-09T09:10:44.794Z,9.70
2024-03-09T09:13:47.110Z,10.16
2024-03-09T09:16:49.006Z,10.31
2024-03-09T09:19:50.771Z,11.04
2024-03-09T09:22:55.147Z,11.03
2024-03-09T09:25:59.004Z,10.74
2024-03-09T09:29:01.820Z,11.14
2024-03-09T09:32:05.292Z,10.68
2024-03-09T09:35:07.519Z,11.18
2024-03-09T09:38:09.449Z,12.10
2024-03-09T09:41:13.594Z,12.20
2024-03-09T09:44:17.148Z,11.48
2024-03-09T09:47:19.355Z,12.11
2024-03-09T09:50:23.886Z,12.05
2024-03-09T09:53:25.977Z,12.37
2024-03-09T09:56:27.781Z,12.77
2024-03-09T09:59:31.343Z,13.20
2024-03-09T10:02:33.992Z,13.63
2024-03-09T10:05:35.763Z,13.82
2024-03-09T10:08:54.406Z,13.79
2024-03-09T10:11:57.529Z,14.10
2024-03-09T10:15:12.491Z,14.28
2024-03-09T10:18:14.711Z,13.74
2024-03-09T10:21:38.786Z,14.15
2024-03-09T10:24:58.969Z,14.80
2024-03-09T10:28:00.853Z,14.92
2024-03-09T10:31:09.005Z,15.37
2024-03-09T10:34:13.594Z,15.36
2024-03-09T10:37:19.483Z,15.70
2024-03-09T10:40:21.885Z,15.73
2024-03-09T10:43:24.294Z,15.79
2024-03-09T10:46:29.824Z,15.39
2024-03-09T10:49:35.126Z,15.34
2024-03-09T10:52:46.834Z,15.45
2024-03-09T10:56:01.004Z,14.79
2024-03-09T10:59:04.462Z,14.79
2024-03-09T11:02:09.086Z,15.44
2024-03-09T11:05:12.383Z,16.36
2024-03-09T11:08:15.151Z,15.68
2024-03-09T11:11:23.574Z,14.02
2024-03-09T11:14:26.327Z,14.31
2024-03-09T11:17:36.162Z,15.62
2024-03-09T11:20:55.634Z,15.59
2024-03-09T11:24:01.234Z,14.79
2024-03-09T11:27:03.573Z,14.94
2024-03-09T11:30:07.598Z,15.48
2024-03-09T11:33:12.221Z,15.21
2024-03-09T11:36:53.911Z,16.19
2024-03-09T11:39:56.068Z,17.41
2024-03-09T11:43:05.820Z,18.19
2024-03-09T11:46:10.782Z,18.25
2024-03-09T11:49:12.548Z,17.34
2024-03-09T11:52:16.132Z,17.59
2024-03-09T11:55:21.925Z,17.07
2024-03-09T11:58:23.978Z,17.87
2024-03-09T12:01:25.981Z,19.37
2024-03-09T12:04:28.139Z,19.54
2024-03-09T12:07:29.939Z,19.13
2024-03-09T12:10:33.123Z,20.47
2024-03-09T12:13:35.046Z,20.82
2024-03-09T12:16:38.590Z,21.42
2024-03-09T12:19:45.446Z,19.13
2024-03-09T12:22:47.620Z,17.20
2024-03-09T12:25:49.395Z,17.78
2024-03-09T12:28:51.543Z,17.76
2024-03-09T12:31:53.368Z,17.74
2024-03-09T12:34:55.861Z,18.06
2024-03-09T12:37:57.826Z,16.70
2024-03-09T12:40:59.817Z,16.88
2024-03-09T12:44:07.424Z,18.14
2024-03-09T12:47:15.774Z,18.13
2024-03-09T12:50:20.524Z,16.87
2024-03-09T12:53:24.293Z,16.86
2024-03-09T12:56:33.918Z,16.26
2024-03-09T12:59:37.826Z,16.22
2024-03-09T13:02:39.617Z,16.71
2024-03-09T13:05:41.339Z,16.67
2024-03-09T13:08:44.464Z,15.91
2024-03-09T13:11:48.321Z,16.57
2024-03-09T13:14:52.902Z,15.90
2024-03-09T13:17:58.870Z,16.00
2024-03-09T13:21:03.062Z,16.45
2024-03-09T13:24:10.065Z,16.55
2024-03-09T13:27:13.886Z,16.10
2024-03-09T13:30:18.694Z,16.36
2024-03-09T13:33:20.456Z,16.23
2024-03-09T13:36:26.104Z,16.29
2024-03-09T13:39:36.593Z,16.23
2024-03-09T13:42:39.671Z,15.59
2024-03-09T13:45:41.928Z,14.69
2024-03-09T13:48:44.506Z,14.99
2024-03-09T13:51:46.432Z,14.14
2024-03-09T13:54:48.219Z,14.23
2024-03-09T13:57:50.002Z,14.54
2024-03-09T14:00:51.819Z,14.87
2024-03-09T14:03:56.600Z,15.03
2024-03-09T14:07:07.584Z,14.84
2024-03-09T14:10:16.738Z,14.73
2024-03-09T14:13:21.371Z,14.73
2024-03-09T14:16:25.562Z,14.71
2024-03-09T14:19:29.486Z,14.67
2024-03-09T14:22:34.174Z,14.74
2024-03-09T14:25:37.077Z,14.66
2024-03-09T14:28:39.722Z,14.81
2024-03-09T14:31:41.808Z,14.74
2024-03-09T14:34:43.616Z,14.71
2024-03-09T14:37:45.526Z,14.75
2024-03-09T14:40:53.123Z,14.60
2024-03-09T14:43:55.254Z,14.46
2024-03-09T14:46:58.256Z,14.42
2024-03-09T14:50:00.074Z,14.29
2024-03-09T14:53:09.896Z,13.99
2024-03-09T14:56:11.730Z,14.14
2024-03-09T14:59:14.296Z,14.19
2024-03-09T15:02:16.124Z,14.10
2024-03-09T15:05:18.698Z,14.12
2024-03-09T15:08:22.815Z,13.96
2024-03-09T15:11:24.875Z,13.94
2024-03-09T15:14:27.212Z,14.01
2024-03-09T15:17:29.411Z,14.50
2024-03-09T15:20:31.263Z,14.97
2024-03-09T15:23:33.268Z,15.21
2024-03-09T15:26:38.605Z,15.28
2024-03-09T15:29:40.631Z,15.11
2024-03-09T15:32:42.491Z,14.90
2024-03-09T15:35:44.248Z,14.76
2024-03-09T15:38:46.161Z,14.47
2024-03-09T15:41:47.900Z,14.18
2024-03-09T15:44:49.818Z,14.10
2024-03-09T15:47:51.872Z,13.83
2024-03-09T15:50:54.232Z,13.68
2024-03-09T15:53:56.052Z,13.49
2024-03-09T15:56:57.837Z,13.38
2024-03-09T15:59:59.664Z,13.22
2024-03-09T16:03:04.639Z,13.06
2024-03-09T16:06:06.538Z,12.98
2024-03-09T16:09:13.346Z,12.92
2024-03-09T16:12:18.194Z,12.72
2024-03-09T16:15:25.693Z,12.56
2024-03-09T16:18:27.537Z,12.59
2024-03-09T16:21:29.322Z,12.42
2024-03-09T16:24:31.104Z,12.22
2024-03-09T16:27:32.811Z,12.19
2024-03-09T16:30:34.604Z,12.15
2024-03-09T16:33:37.963Z,12.24
2024-03-09T16:36:39.771Z,12.17
2024-03-09T16:39:41.683Z,12.09
2024-03-09T16:42:46.651Z,11.87
2024-03-09T16:45:48.385Z,11.86
2024-03-09T16:48:52.291Z,11.85
2024-03-09T16:51:54.147Z,11.75
2024-03-09T16:54:55.904Z,11.83
2024-03-09T16:58:02.083Z,11.71
2024-03-09T17:01:06.154Z,11.65
2024-03-09T17:04:13.067Z,11.64
2024-03-09T17:07:14.916Z,11.52
2024-03-09T17:10:19.372Z,11.54
2024-03-09T17:13:24.902Z,11.48
2024-03-09T17:16:26.629Z,11.47
2024-03-09T17:19:28.425Z,11.38
2024-03-09T17:22:31.840Z,11.32
2024-03-09T17:25:36.399Z,11.23
2024-03-09T17:28:38.906Z,11.33
2024-03-09T17:31:40.727Z,11.22
2024-03-09T17:34:43.344Z,11.31
2024-03-09T17:37:47.552Z,11.27
2024-03-09T17:40:49.512Z,11.11
2024-03-09T17:43:51.436Z,11.06
2024-03-09T17:46:57.277Z,11.06
2024-03-09T17:49:59.101Z,11.05
2024-03-09T17:53:01.437Z,10.82
2024-03-09T17:56:03.365Z,10.93
2024-03-09T17:59:07.151Z,10.91
2024-03-09T18:02:10.029Z,10.84
2024-03-09T18:05:12.636Z,10.91
2024-03-09T18:08:15.865Z,10.79
2024-03-09T18:11:17.857Z,10.75
2024-03-09T18:14:21.650Z,10.69
2024-03-09T18:17:24.737Z,10.62
2024-03-09T18:20:28.745Z,10.59
2024-03-09T18:23:30.592Z,10.55
2024-03-09T18:26:34.250Z,10.53
2024-03-09T18:29:36.032Z,10.38
2024-03-09T18:32:44.156Z,10.43
2024-03-09T18:35:47.680Z,10.36
2024-03-09T18:38:50.330Z,10.23
2024-03-09T18:41:53.861Z,10.22
2024-03-09T18:44:55.823Z,10.20
2024-03-09T18:47:58.887Z,10.10
2024-03-09T18:51:01.533Z,10.12
2024-03-09T18:54:03.363Z,10.09
2024-03-09T18:57:05.364Z,10.01
2024-03-09T19:00:19.161Z,10.02
2024-03-09T19:03:22.445Z,9.90
2024-03-09T19:06:24.291Z,9.90
2024-03-09T19:09:25.998Z,9.77
2024-03-09T19:12:27.791Z,9.66
2024-03-09T19:15:29.579Z,9.72
2024-03-09T19:18:31.626Z,9.60
2024-03-09T19:21:33.723Z,9.54
2024-03-09T19:24:35.474Z,9.52
2024-03-09T19:27:47.243Z,9.29
2024-03-09T19:30:49.466Z,9.34
2024-03-09T19:33:51.202Z,9.14
2024-03-09T19:36:53.660Z,9.22
2024-03-09T19:39:56.160Z,9.08
2024-03-09T19:43:01.627Z,9.08
2024-03-09T19:46:03.709Z,8.98
2024-03-09T19:49:05.453Z,9.07
2024-03-09T19:52:07.232Z,8.99
2024-03-09T19:55:13.362Z,8.97
2024-03-09T19:58:16.590Z,8.96
2024-03-09T20:01:20.891Z,8.85
2024-03-09T20:04:22.711Z,8.80
2024-03-09T20:07:25.986Z,8.83
2024-03-09T20:10:30.830Z,8.73
2024-03-09T20:13:35.841Z,8.79
2024-03-09T20:16:37.584Z,8.77
2024-03-09T20:19:40.162Z,8.90
2024-03-09T20:22:42.739Z,8.92
2024-03-09T20:25:44.576Z,8.88
2024-03-09T20:28:47.838Z,8.92
2024-03-09T20:31:49.795Z,8.96
2024-03-09T20:34:52.945Z,9.03
2024-03-09T20:37:56.742Z,9.03
2024-03-09T20:40:58.589Z,9.11
2024-03-09T20:44:00.716Z,9.20
2024-03-09T20:47:02.737Z,9.11
2024-03-09T20:50:12.344Z,9.12
2024-03-09T20:53:23.801Z,9.24
2024-03-09T20:56:25.680Z,9.21
2024-03-09T20:59:28.695Z,9.36
2024-03-09T21:02:32.850Z,9.31
2024-03-09T21:05:35.400Z,9.34
2024-03-09T21:08:38.620Z,9.30
2024-03-09T21:11:40.916Z,9.38
2024-03-09T21:14:42.675Z,9.42
2024-03-09T21:17:44.780Z,9.32
2024-03-09T21:20:46.610Z,9.40
2024-03-09T21:23:48.391Z,9.35
2024-03-09T21:26:50.132Z,9.30
2024-03-09T21:29:51.914Z,9.36
2024-03-09T21:32:53.790Z,9.43
2024-03-09T21:35:55.598Z,9.51
2024-03-09T21:38:57.534Z,9.45
2024-03-09T21:42:00.107Z,9.33
2024-03-09T21:45:01.921Z,9.37
2024-03-09T21:48:06.503Z,9.32
2024-03-09T21:51:09.489Z,9.39
2024-03-09T21:54:14.322Z,9.39
2024-03-09T21:57:16.112Z,9.27
2024-03-09T22:00:25.239Z,9.36
2024-03-09T22:03:30.034Z,9.47
2024-03-09T22:06:31.858Z,9.25
2024-03-09T22:09:33.970Z,9.24
2024-03-09T22:12:36.420Z,9.16
2024-03-09T22:15:38.694Z,9.13
2024-03-09T22:18:40.425Z,9.08
2024-03-09T22:21:42.246Z,9.03
2024-03-09T22:24:44.023Z,9.10
2024-03-09T22:27:46.134Z,9.16
2024-03-09T22:30:47.855Z,9.06
2024-03-09T22:33:49.580Z,9.09
2024-03-09T22:36:51.351Z,8.97
2024-03-09T22:39:53.053Z,9.10
2024-03-09T22:42:55.184Z,9.28
2024-03-09T22:45:58.589Z,9.26
2024-03-09T22:49:00.950Z,9.24
2024-03-09T22:52:02.823Z,9.25
2024-03-09T22:55:05.402Z,9.22
2024-03-09T22:58:07.190Z,9.30
2024-03-09T23:01:25.691Z,9.24
2024-03-09T23:04:29.062Z,9.23
2024-03-09T23:07:30.824Z,9.23
2024-03-09T23:10:34.144Z,9.37
2024-03-09T23:13:37.200Z,9.51
2024-03-09T23:16:39.000Z,9.37
2024-03-09T23:19:41.294Z,9.40
2024-03-09T23:22:53.139Z,9.24
2024-03-09T23:25:55.095Z,9.43
2024-03-09T23:28:56.918Z,9.53
2024-03-09T23:31:59.190Z,9.43
2024-03-09T23:35:02.905Z,9.42
2024-03-09T23:38:06.649Z,9.44
2024-03-09T23:41:09.044Z,9.38
2024-03-09T23:44:14.064Z,9.47
2024-03-09T23:47:15.941Z,9.45
2024-03-09T23:50:19.069Z,9.48
2024-03-09T23:53:21.789Z,9.47
2024-03-09T23:56:23.727Z,9.45
2024-03-09T23:59:25.721Z,9.53
